Time;durP1;ratioP1;P1;durP2;ratioP2;P2;SDS_P1;SDS_P2;PMS_P1;PMS_P2;Temp;Humidity;BMP_temperature;BMP_pressure;BME280_temperature;BME280_humidity;BME280_pressure;Samples;Min_cycle;Max_cycle;Signal;HPM_P1;HPM_P2
2021/03/26 00:02:00;;;;;;;113.87;45.77;;;4.30;99.90;;;;;;4426370;32;20137;-71
2021/03/26 00:04:41;;;;;;;113.70;46.40;;;4.20;99.90;;;;;;4426169;32;20145;-71
2021/03/26 00:07:35;;;;;;;110.27;44.23;;;4.20;99.90;;;;;;4424874;32;20209;-71
2021/03/26 00:10:55;;;;;;;112.93;44.80;;;4.20;99.90;;;;;;4426135;32;20163;-70
2021/03/26 00:13:37;;;;;;;112.30;44.40;;;4.20;99.90;;;;;;4347053;33;20242;-71
2021/03/26 00:16:06;;;;;;;113.17;45.27;;;4.10;99.90;;;;;;4346582;33;20448;-70
2021/03/26 00:18:42;;;;;;;116.67;46.23;;;4.10;99.90;;;;;;4347043;33;20138;-71
2021/03/26 00:24:23;;;;;;;117.97;45.10;;;4.20;99.90;;;;;;4302589;33;20412;-71
2021/03/26 00:27:22;;;;;;;116.03;45.13;;;4.20;99.90;;;;;;4304714;33;20188;-71
2021/03/26 00:29:49;;;;;;;115.57;44.23;;;4.20;99.90;;;;;;4303009;33;20154;-71
2021/03/26 00:32:17;;;;;;;114.33;44.43;;;4.10;99.90;;;;;;4302672;33;20467;-70
2021/03/26 00:34:44;;;;;;;118.23;45.67;;;4.10;99.90;;;;;;4304092;33;20201;-71
2021/03/26 00:37:10;;;;;;;115.37;44.07;;;4.00;99.90;;;;;;4303758;33;20218;-70
2021/03/26 00:39:37;;;;;;;111.63;46.13;;;4.00;99.90;;;;;;4302652;33;20548;-71
2021/03/26 00:42:04;;;;;;;107.73;43.10;;;4.00;99.90;;;;;;4303836;33;20457;-71
2021/03/26 00:44:30;;;;;;;116.63;45.23;;;4.00;99.90;;;;;;4303263;33;20170;-71
2021/03/26 00:46:57;;;;;;;117.40;44.73;;;4.00;99.90;;;;;;4303090;33;20171;-71
2021/03/26 00:49:23;;;;;;;113.57;44.57;;;3.90;99.90;;;;;;4319153;33;20157;-70
2021/03/26 00:51:50;;;;;;;113.17;45.30;;;3.90;99.90;;;;;;4348290;33;20148;-71
2021/03/26 00:54:17;;;;;;;109.67;42.93;;;3.90;99.90;;;;;;4346702;33;20518;-70
2021/03/26 00:56:45;;;;;;;110.63;43.77;;;3.90;99.90;;;;;;4346691;33;20149;-70
2021/03/26 00:59:12;;;;;;;111.90;43.37;;;3.90;99.90;;;;;;4348386;33;20136;-70
2021/03/26 01:01:39;;;;;;;117.77;44.73;;;4.00;99.90;;;;;;4399114;32;20398;-71
2021/03/26 01:04:06;;;;;;;122.80;48.10;;;3.90;99.90;;;;;;4426076;32;20136;-71
2021/03/26 01:06:32;;;;;;;118.77;47.43;;;4.00;99.90;;;;;;4424229;32;20147;-72
2021/03/26 01:09:00;;;;;;;117.83;47.27;;;4.00;99.90;;;;;;4425423;32;20449;-71
2021/03/26 01:11:32;;;;;;;116.77;46.40;;;4.00;99.90;;;;;;4425506;32;20138;-71
2021/03/26 01:14:07;;;;;;;116.33;44.73;;;4.00;99.90;;;;;;4425536;32;20177;-70
2021/03/26 01:16:34;;;;;;;116.53;43.70;;;4.00;99.90;;;;;;4424130;32;20147;-71
2021/03/26 01:19:01;;;;;;;110.53;43.33;;;4.00;99.90;;;;;;4424704;32;20147;-71
2021/03/26 01:21:31;;;;;;;109.27;42.43;;;4.10;99.90;;;;;;4424218;32;20147;-71
2021/03/26 01:23:58;;;;;;;113.77;41.93;;;4.00;99.90;;;;;;4425532;32;20441;-71
2021/03/26 01:26:25;;;;;;;106.40;42.77;;;4.10;99.90;;;;;;4425711;32;20176;-70
2021/03/26 01:28:52;;;;;;;105.73;42.80;;;4.10;99.90;;;;;;4423922;32;20150;-71
2021/03/26 01:31:19;;;;;;;105.67;42.30;;;4.10;99.90;;;;;;4413159;32;20174;-70
2021/03/26 01:33:46;;;;;;;110.83;42.77;;;4.20;99.90;;;;;;4426978;32;20172;-71
2021/03/26 01:36:13;;;;;;;108.60;42.90;;;4.20;99.90;;;;;;4414247;32;20168;-71
2021/03/26 01:38:39;;;;;;;115.33;44.07;;;4.20;99.90;;;;;;4412350;32;20465;-70
2021/03/26 01:41:13;;;;;;;111.97;43.13;;;4.20;99.90;;;;;;4428409;32;20211;-70
2021/03/26 01:43:41;;;;;;;112.43;42.97;;;4.30;99.90;;;;;;4428384;32;20166;-71
2021/03/26 01:46:11;;;;;;;113.73;43.13;;;4.30;99.90;;;;;;4428142;32;20178;-71
2021/03/26 01:48:39;;;;;;;102.73;42.33;;;4.30;99.90;;;;;;4426858;32;20449;-70
2021/03/26 01:51:10;;;;;;;109.67;42.80;;;4.40;99.90;;;;;;4428037;32;20158;-71
2021/03/26 01:53:36;;;;;;;107.30;41.47;;;4.40;99.90;;;;;;4427240;32;20158;-70
2021/03/26 01:56:04;;;;;;;108.97;40.77;;;4.40;99.90;;;;;;4426544;32;20540;-71
2021/03/26 01:58:33;;;;;;;111.80;42.70;;;4.40;99.90;;;;;;4426354;32;20160;-72
2021/03/26 02:01:06;;;;;;;111.43;42.10;;;4.50;99.90;;;;;;4426199;32;20160;-71
2021/03/26 02:03:39;;;;;;;113.47;41.40;;;4.40;99.90;;;;;;4426586;32;20136;-71
2021/03/26 02:06:19;;;;;;;110.07;40.70;;;4.50;99.90;;;;;;4427894;32;20382;-70
2021/03/26 02:08:46;;;;;;;108.17;41.60;;;4.60;99.90;;;;;;4427713;32;20448;-71
2021/03/26 02:11:24;;;;;;;105.13;41.53;;;4.60;99.90;;;;;;4427828;32;20163;-70
2021/03/26 02:13:52;;;;;;;108.33;40.80;;;4.60;99.90;;;;;;4427687;32;20148;-71
2021/03/26 02:16:19;;;;;;;100.97;41.17;;;4.60;99.90;;;;;;4427091;32;20136;-72
2021/03/26 02:18:46;;;;;;;108.97;41.70;;;4.70;99.90;;;;;;4426392;32;20168;-71
2021/03/26 02:21:26;;;;;;;106.23;40.43;;;4.70;99.90;;;;;;4426253;32;20169;-71
2021/03/26 02:23:53;;;;;;;109.60;41.67;;;4.80;99.90;;;;;;4426252;32;20378;-70
2021/03/26 02:26:36;;;;;;;104.77;41.50;;;4.80;99.90;;;;;;4428129;32;20136;-70
2021/03/26 02:32:01;;;;;;;110.27;43.90;;;4.90;99.90;;;;;;4426317;32;20181;-71
2021/03/26 02:34:29;;;;;;;103.07;41.30;;;4.90;99.90;;;;;;4427699;32;20375;-71
2021/03/26 02:37:00;;;;;;;114.57;44.10;;;4.80;99.90;;;;;;4427406;32;20148;-71
2021/03/26 02:39:41;;;;;;;110.03;42.23;;;4.80;99.90;;;;;;4426378;32;20143;-71
2021/03/26 02:42:19;;;;;;;109.90;43.17;;;4.80;99.90;;;;;;4426044;32;20167;-71
2021/03/26 02:45:25;;;;;;;111.00;41.70;;;4.80;99.90;;;;;;4427535;32;20182;-71
2021/03/26 02:47:59;;;;;;;109.40;42.83;;;4.80;99.90;;;;;;4415233;32;20433;-71
2021/03/26 02:50:49;;;;;;;110.80;43.60;;;4.70;99.90;;;;;;4427278;32;20139;-71
2021/03/26 02:53:22;;;;;;;107.70;43.00;;;4.60;99.90;;;;;;4425700;32;20142;-71
2021/03/26 02:56:04;;;;;;;109.23;43.27;;;4.60;99.90;;;;;;4427285;32;20170;-71
2021/03/26 02:58:35;;;;;;;114.37;44.83;;;4.60;99.90;;;;;;4427210;32;20334;-71
2021/03/26 03:01:30;;;;;;;111.40;44.57;;;4.60;99.90;;;;;;4427224;32;20159;-71
2021/03/26 03:04:03;;;;;;;105.53;42.63;;;4.40;99.90;;;;;;4425243;32;20139;-71
2021/03/26 03:06:39;;;;;;;110.17;43.10;;;4.40;99.90;;;;;;4427273;32;20166;-71
2021/03/26 03:09:07;;;;;;;113.23;44.47;;;4.40;99.90;;;;;;4426032;32;20245;-71
2021/03/26 03:11:39;;;;;;;111.63;44.30;;;4.50;99.90;;;;;;4425341;32;20192;-71
2021/03/26 03:14:17;;;;;;;103.73;41.23;;;4.40;99.90;;;;;;4425431;32;20202;-71
2021/03/26 03:16:49;;;;;;;105.07;41.67;;;4.40;99.90;;;;;;4427260;32;20457;-71
2021/03/26 03:19:27;;;;;;;109.30;42.50;;;4.40;99.90;;;;;;4425407;32;20155;-71
2021/03/26 03:22:38;;;;;;;113.03;43.20;;;4.40;99.90;;;;;;4427135;32;20165;-71
2021/03/26 03:25:12;;;;;;;107.30;42.53;;;4.40;99.90;;;;;;4348969;33;20499;-71
2021/03/26 03:27:51;;;;;;;112.33;43.57;;;4.50;99.90;;;;;;4348393;33;20448;-71
2021/03/26 03:30:35;;;;;;;107.80;43.00;;;4.50;99.90;;;;;;4347922;33;20274;-71
2021/03/26 03:33:10;;;;;;;106.83;42.93;;;4.50;99.90;;;;;;4348168;33;20153;-71
2021/03/26 03:35:51;;;;;;;112.87;43.70;;;4.50;99.90;;;;;;4349224;33;20544;-71
2021/03/26 03:38:35;;;;;;;122.57;44.93;;;4.40;99.90;;;;;;4349545;33;20153;-71
2021/03/26 03:41:31;;;;;;;112.40;43.67;;;4.30;99.90;;;;;;4349399;33;20164;-71
2021/03/26 03:44:13;;;;;;;115.00;44.03;;;4.10;99.90;;;;;;4304294;33;20181;-70
2021/03/26 03:46:52;;;;;;;117.70;44.13;;;4.10;99.90;;;;;;4303887;33;20151;-71
2021/03/26 03:49:47;;;;;;;119.33;44.07;;;4.10;99.90;;;;;;4304251;33;20235;-71
2021/03/26 03:52:49;;;;;;;111.13;42.73;;;4.10;99.90;;;;;;4303457;33;20168;-71
2021/03/26 03:55:45;;;;;;;108.50;43.30;;;4.00;99.90;;;;;;4305485;33;20186;-71
2021/03/26 03:58:30;;;;;;;108.40;42.57;;;3.90;99.90;;;;;;4316297;33;20175;-71
2021/03/26 04:01:05;;;;;;;113.30;42.90;;;4.00;99.90;;;;;;4363589;32;20204;-71
2021/03/26 04:03:37;;;;;;;111.80;42.30;;;4.10;99.90;;;;;;4364247;32;20159;-71
2021/03/26 04:06:12;;;;;;;121.27;44.77;;;4.20;99.90;;;;;;4364261;32;20375;-71
2021/03/26 04:08:43;;;;;;;116.03;43.40;;;4.20;99.90;;;;;;4364239;32;20156;-71
2021/03/26 04:11:20;;;;;;;114.57;44.27;;;4.30;99.90;;;;;;4363156;32;20487;-71
2021/03/26 04:13:58;;;;;;;111.10;43.83;;;4.30;99.90;;;;;;4363833;32;20195;-71
2021/03/26 04:16:26;;;;;;;121.60;44.57;;;4.30;99.90;;;;;;4362159;32;20557;-70
2021/03/26 04:19:00;;;;;;;112.17;44.70;;;4.30;99.90;;;;;;4363551;32;20245;-70
2021/03/26 04:21:34;;;;;;;118.43;44.63;;;4.10;99.90;;;;;;4407464;32;20226;-70
2021/03/26 04:24:25;;;;;;;109.60;42.53;;;4.10;99.90;;;;;;4425979;32;20163;-70
2021/03/26 04:26:57;;;;;;;123.50;44.47;;;4.20;99.90;;;;;;4412381;32;20183;-72
2021/03/26 04:29:42;;;;;;;108.47;42.90;;;4.20;99.90;;;;;;4426145;32;20150;-72
2021/03/26 04:32:21;;;;;;;114.80;44.23;;;4.10;99.90;;;;;;4424602;32;20178;-71
2021/03/26 04:34:50;;;;;;;116.87;45.87;;;4.10;99.90;;;;;;4424497;32;20201;-71
2021/03/26 04:37:23;;;;;;;111.63;43.50;;;4.20;99.90;;;;;;4425308;32;20141;-72
2021/03/26 04:40:08;;;;;;;113.33;43.77;;;4.30;99.90;;;;;;4426304;32;20157;-71
2021/03/26 04:42:44;;;;;;;113.53;43.43;;;4.30;99.90;;;;;;4426173;32;20443;-72
2021/03/26 04:45:15;;;;;;;117.13;45.40;;;4.20;99.90;;;;;;4426311;32;20144;-72
2021/03/26 04:47:58;;;;;;;115.87;44.23;;;4.20;99.90;;;;;;4425985;32;20131;-72
2021/03/26 04:50:45;;;;;;;119.13;43.67;;;4.10;99.90;;;;;;4425961;32;20455;-71
2021/03/26 04:53:26;;;;;;;117.97;44.23;;;4.30;99.90;;;;;;4424355;32;20148;-71
2021/03/26 04:55:58;;;;;;;117.60;42.50;;;4.30;99.90;;;;;;4424740;32;20170;-71
2021/03/26 04:58:31;;;;;;;115.67;43.63;;;4.40;99.90;;;;;;4425885;32;20165;-72
2021/03/26 05:01:02;;;;;;;115.20;44.03;;;4.40;99.90;;;;;;4425817;32;20138;-71
2021/03/26 05:03:38;;;;;;;119.10;45.27;;;4.50;99.90;;;;;;4425506;32;20160;-72
2021/03/26 05:06:21;;;;;;;120.37;46.97;;;4.50;99.90;;;;;;4426010;32;20208;-72
2021/03/26 05:09:00;;;;;;;118.43;44.53;;;4.60;99.90;;;;;;4425751;32;20149;-71
2021/03/26 05:11:30;;;;;;;119.97;47.03;;;4.50;99.90;;;;;;4425773;32;20155;-71
2021/03/26 05:14:01;;;;;;;120.97;46.53;;;4.40;99.90;;;;;;4425676;32;20131;-71
2021/03/26 05:16:40;;;;;;;117.37;46.90;;;4.40;99.90;;;;;;4424343;32;20249;-72
2021/03/26 05:19:16;;;;;;;116.80;45.67;;;4.40;99.90;;;;;;4424380;32;20148;-72
2021/03/26 05:21:49;;;;;;;119.60;45.47;;;4.40;99.90;;;;;;4425702;32;20419;-72
2021/03/26 05:24:26;;;;;;;123.40;47.23;;;4.40;99.90;;;;;;4424465;32;20558;-72
2021/03/26 05:26:53;;;;;;;122.23;46.70;;;4.40;99.90;;;;;;4423700;32;20559;-72
2021/03/26 05:29:21;;;;;;;122.97;45.63;;;4.40;99.90;;;;;;4425624;32;20159;-72
2021/03/26 05:32:09;;;;;;;115.40;44.43;;;4.40;99.90;;;;;;4424259;32;20167;-71
2021/03/26 05:34:45;;;;;;;121.70;46.40;;;4.30;99.90;;;;;;4425484;32;20177;-71
2021/03/26 05:37:18;;;;;;;123.73;45.83;;;4.50;99.90;;;;;;4423759;32;20139;-71
2021/03/26 05:39:48;;;;;;;119.97;45.40;;;4.60;99.90;;;;;;4425568;32;20146;-71
2021/03/26 05:42:21;;;;;;;128.87;46.03;;;4.50;99.90;;;;;;4425474;32;20170;-71
2021/03/26 05:45:13;;;;;;;118.27;45.70;;;4.50;99.90;;;;;;4424820;32;20534;-71
2021/03/26 05:47:52;;;;;;;121.27;46.63;;;4.60;99.90;;;;;;4422231;32;20502;-72
2021/03/26 05:50:51;;;;;;;123.40;46.87;;;4.80;99.90;;;;;;4423974;32;20162;-72
2021/03/26 05:53:52;;;;;;;122.13;46.33;;;4.90;99.90;;;;;;4425645;32;20188;-73
2021/03/26 05:56:31;;;;;;;121.00;46.07;;;4.80;99.90;;;;;;4425407;32;20399;-71
2021/03/26 05:59:25;;;;;;;117.17;44.57;;;4.90;99.90;;;;;;4425238;32;20145;-71
2021/03/26 06:02:09;;;;;;;118.67;45.20;;;5.00;99.90;;;;;;4423698;32;20184;-71
2021/03/26 06:04:54;;;;;;;122.50;46.40;;;5.10;99.90;;;;;;4423825;32;20168;-71
2021/03/26 06:07:58;;;;;;;123.10;45.83;;;5.00;99.90;;;;;;4424794;32;20143;-71
2021/03/26 06:10:51;;;;;;;113.87;45.20;;;4.80;99.90;;;;;;4423782;32;20492;-71
2021/03/26 06:13:33;;;;;;;119.70;44.80;;;4.90;99.90;;;;;;4425506;32;20140;-71
2021/03/26 06:15:59;;;;;;;113.60;43.90;;;5.10;99.90;;;;;;4426657;32;20154;-71
2021/03/26 06:18:31;;;;;;;115.47;45.33;;;5.20;99.90;;;;;;4427862;32;20175;-70
2021/03/26 06:21:43;;;;;;;123.33;46.40;;;5.30;99.90;;;;;;4427832;32;20136;-70
2021/03/26 06:24:36;;;;;;;119.13;46.07;;;5.40;99.90;;;;;;4425970;32;20139;-71
2021/03/26 06:27:31;;;;;;;124.00;47.57;;;5.50;99.90;;;;;;4427908;32;20140;-72
2021/03/26 06:30:20;;;;;;;114.80;45.30;;;5.50;99.90;;;;;;4427718;32;20204;-71
2021/03/26 06:33:02;;;;;;;125.33;46.87;;;5.60;99.90;;;;;;4426507;32;20435;-71
2021/03/26 06:35:58;;;;;;;121.53;45.57;;;5.70;99.90;;;;;;4427761;32;20378;-71
2021/03/26 06:38:45;;;;;;;130.57;47.60;;;5.70;99.90;;;;;;4426201;32;20374;-71
2021/03/26 06:41:27;;;;;;;115.93;46.40;;;5.80;99.90;;;;;;4426078;32;20143;-71
2021/03/26 06:44:27;;;;;;;112.13;45.17;;;5.90;99.90;;;;;;4426575;32;20176;-71
2021/03/26 06:47:04;;;;;;;120.67;48.53;;;6.00;99.90;;;;;;4426098;32;20465;-71
2021/03/26 06:49:55;;;;;;;119.27;47.33;;;5.90;99.90;;;;;;4425802;32;20192;-71
2021/03/26 06:52:47;;;;;;;119.40;47.93;;;5.90;99.90;;;;;;4426815;32;20170;-71
2021/03/26 06:55:30;;;;;;;126.03;46.83;;;6.00;99.90;;;;;;4427261;32;20476;-71
2021/03/26 06:58:23;;;;;;;119.70;45.47;;;6.10;99.90;;;;;;4427672;32;20131;-71
2021/03/26 07:01:23;;;;;;;120.97;46.47;;;6.10;99.90;;;;;;4427282;32;20137;-72
2021/03/26 07:04:08;;;;;;;111.97;45.47;;;6.20;99.90;;;;;;4427291;32;20147;-72
2021/03/26 07:06:44;;;;;;;115.57;45.37;;;6.30;99.90;;;;;;4425781;32;20236;-73
2021/03/26 07:09:10;;;;;;;111.33;45.50;;;6.30;99.90;;;;;;4425533;32;20207;-70
2021/03/26 07:12:09;;;;;;;118.77;45.80;;;6.40;99.90;;;;;;4427094;32;20154;-73
2021/03/26 07:14:51;;;;;;;117.13;46.23;;;6.50;99.90;;;;;;4410038;32;20207;-71
2021/03/26 07:18:08;;;;;;;115.87;45.33;;;6.40;99.90;;;;;;4425545;32;20142;-72
2021/03/26 07:20:53;;;;;;;121.87;46.10;;;6.50;99.90;;;;;;4348597;33;20201;-71
2021/03/26 07:23:47;;;;;;;120.57;45.37;;;6.60;99.90;;;;;;4348588;33;20575;-72
2021/03/26 07:26:38;;;;;;;117.17;45.43;;;6.70;99.90;;;;;;4349741;33;20158;-72
2021/03/26 07:29:29;;;;;;;119.53;45.17;;;6.70;99.90;;;;;;4349649;33;20175;-72
2021/03/26 07:32:20;;;;;;;122.43;46.73;;;6.70;99.90;;;;;;4304062;33;20524;-73
2021/03/26 07:35:38;;;;;;;117.77;45.40;;;6.80;99.90;;;;;;4304569;33;20166;-74
2021/03/26 07:38:26;;;;;;;123.90;47.47;;;7.00;99.90;;;;;;4261709;33;20154;-73
2021/03/26 07:41:02;;;;;;;117.40;46.70;;;7.10;99.90;;;;;;4261302;33;20196;-72
2021/03/26 07:44:01;;;;;;;122.77;45.70;;;7.20;99.90;;;;;;4262844;33;20168;-72
2021/03/26 07:47:11;;;;;;;116.97;46.90;;;7.40;99.90;;;;;;4260791;33;20209;-71
2021/03/26 07:50:27;;;;;;;109.60;44.30;;;7.60;99.90;;;;;;4262005;33;20159;-72
2021/03/26 07:53:25;;;;;;;119.17;46.10;;;7.60;99.90;;;;;;4205257;34;20212;-72
2021/03/26 07:56:43;;;;;;;121.80;46.20;;;7.60;99.90;;;;;;4240410;33;20176;-72
2021/03/26 08:00:19;;;;;;;120.07;48.60;;;7.80;99.90;;;;;;4237354;33;20204;-72
2021/03/26 08:03:50;;;;;;;121.23;48.40;;;8.00;99.40;;;;;;4452818;32;20290;-71
2021/03/26 08:06:39;;;;;;;117.63;47.83;;;8.00;99.10;;;;;;4425017;32;20196;-73
2021/03/26 08:09:30;;;;;;;118.80;47.60;;;8.10;98.40;;;;;;4435255;32;20139;-72
2021/03/26 08:12:45;;;;;;;119.93;47.57;;;8.30;98.20;;;;;;4437152;32;20181;-72
2021/03/26 08:15:39;;;;;;;119.37;49.40;;;8.50;97.30;;;;;;4432977;32;20204;-71
2021/03/26 08:18:37;;;;;;;118.07;48.30;;;8.30;96.90;;;;;;4436765;32;20161;-69
2021/03/26 08:21:52;;;;;;;116.93;47.97;;;8.40;97.20;;;;;;4379270;32;20193;-69
2021/03/26 08:25:10;;;;;;;121.43;48.10;;;8.40;97.00;;;;;;4390287;32;20147;-69
2021/03/26 08:27:56;;;;;;;111.63;48.00;;;8.40;97.00;;;;;;4394013;32;20197;-71
2021/03/26 08:30:56;;;;;;;121.57;48.43;;;8.50;96.30;;;;;;4390696;32;20205;-68
2021/03/26 08:33:53;;;;;;;115.93;46.83;;;8.80;95.60;;;;;;4389525;32;20209;-69
2021/03/26 08:37:17;;;;;;;120.60;48.83;;;8.70;95.20;;;;;;4391269;32;20231;-70
2021/03/26 08:40:08;;;;;;;109.03;47.27;;;8.80;95.30;;;;;;4387444;32;20159;-68
2021/03/26 08:42:44;;;;;;;115.60;46.23;;;9.10;94.50;;;;;;4387526;32;20300;-67
2021/03/26 08:45:47;;;;;;;115.53;48.43;;;9.40;93.90;;;;;;4403747;32;20208;-68
2021/03/26 08:48:46;;;;;;;110.80;47.07;;;9.60;93.10;;;;;;4438121;32;20448;-72
2021/03/26 08:51:47;;;;;;;113.43;47.33;;;9.90;92.50;;;;;;4358068;33;20153;-71
2021/03/26 08:54:45;;;;;;;107.70;47.10;;;10.30;91.30;;;;;;4360587;33;20195;-71
2021/03/26 08:57:49;;;;;;;112.90;46.87;;;10.70;90.00;;;;;;4358450;33;20141;-71
2021/03/26 09:00:54;;;;;;;114.23;49.40;;;10.80;88.10;;;;;;4300426;33;20211;-71
2021/03/26 09:03:51;;;;;;;114.67;47.93;;;11.00;87.70;;;;;;4300473;33;20484;-72
2021/03/26 09:06:56;;;;;;;105.97;47.47;;;11.10;85.90;;;;;;4299289;33;20243;-71
2021/03/26 09:10:19;;;;;;;105.20;45.90;;;11.20;85.60;;;;;;4300340;33;20217;-71
2021/03/26 09:13:31;;;;;;;107.67;47.30;;;11.40;83.70;;;;;;4296537;33;20169;-72
2021/03/26 09:16:11;;;;;;;102.67;45.27;;;11.40;83.20;;;;;;4290906;33;20149;-73
2021/03/26 09:18:51;;;;;;;107.13;46.17;;;11.50;82.80;;;;;;4292225;33;20141;-72
2021/03/26 09:22:07;;;;;;;108.37;45.47;;;11.80;82.40;;;;;;4290330;33;20217;-71
2021/03/26 09:25:21;;;;;;;110.60;47.03;;;12.50;80.30;;;;;;4290941;33;20150;-72
2021/03/26 09:28:13;;;;;;;103.57;45.30;;;13.10;76.60;;;;;;4313641;33;20510;-71
2021/03/26 09:31:11;;;;;;;100.73;45.17;;;13.60;74.10;;;;;;4348675;33;20161;-72
2021/03/26 09:33:53;;;;;;;100.37;47.30;;;14.00;72.10;;;;;;4304671;33;20169;-71
2021/03/26 09:36:38;;;;;;;98.67;46.17;;;14.60;69.40;;;;;;4355050;32;20419;-72
2021/03/26 09:39:07;;;;;;;94.47;45.43;;;14.90;67.70;;;;;;4378146;32;20230;-71
2021/03/26 09:41:47;;;;;;;95.47;44.53;;;15.40;65.80;;;;;;4378063;32;20143;-74
2021/03/26 09:45:01;;;;;;;101.73;44.30;;;15.70;63.80;;;;;;4378713;32;20146;-73
2021/03/26 09:47:56;;;;;;;92.30;45.60;;;16.10;62.10;;;;;;4319209;33;20555;-71
2021/03/26 09:50:42;;;;;;;92.73;44.50;;;16.20;60.00;;;;;;4275691;33;20430;-71
2021/03/26 09:53:15;;;;;;;94.57;44.23;;;16.30;59.70;;;;;;4276196;33;20176;-70
2021/03/26 09:55:47;;;;;;;92.47;44.50;;;16.50;59.80;;;;;;4275971;33;20168;-70
2021/03/26 09:58:38;;;;;;;92.43;44.93;;;16.80;58.90;;;;;;4276372;33;20169;-69
2021/03/26 10:01:19;;;;;;;89.77;44.30;;;17.00;58.50;;;;;;4276912;33;20272;-71
2021/03/26 10:04:00;;;;;;;87.77;44.00;;;17.20;57.60;;;;;;4276658;33;20172;-69
2021/03/26 10:06:52;;;;;;;91.37;44.90;;;17.30;57.00;;;;;;4265404;33;20202;-69
2021/03/26 10:09:37;;;;;;;91.90;44.73;;;17.70;56.10;;;;;;4275640;33;20170;-70
2021/03/26 10:12:10;;;;;;;92.80;45.03;;;18.00;55.20;;;;;;4305926;33;20514;-71
2021/03/26 10:15:05;;;;;;;87.73;43.73;;;18.10;55.20;;;;;;4304665;33;20150;-70
2021/03/26 10:17:49;;;;;;;82.83;41.60;;;18.30;54.80;;;;;;4315406;33;20190;-71
2021/03/26 10:20:30;;;;;;;80.60;41.20;;;18.60;53.20;;;;;;4348627;33;20499;-71
2021/03/26 10:23:25;;;;;;;78.77;40.60;;;18.60;53.60;;;;;;4347919;33;20206;-71
2021/03/26 10:26:02;;;;;;;81.47;41.50;;;18.50;52.00;;;;;;4341262;32;20484;-72
2021/03/26 10:28:32;;;;;;;73.90;39.47;;;18.60;52.80;;;;;;4410338;32;20135;-71
2021/03/26 10:31:15;;;;;;;77.37;40.00;;;19.10;51.40;;;;;;4409154;32;20500;-72
2021/03/26 10:33:52;;;;;;;78.13;40.30;;;19.40;50.70;;;;;;4409850;32;20147;-70
2021/03/26 10:36:30;;;;;;;77.20;40.20;;;19.50;50.40;;;;;;4410308;32;20150;-70
2021/03/26 10:39:26;;;;;;;78.40;42.07;;;19.90;50.10;;;;;;4411550;32;20162;-73
2021/03/26 10:42:33;;;;;;;76.43;40.90;;;20.00;49.20;;;;;;4409845;32;20414;-70
2021/03/26 10:45:24;;;;;;;76.40;41.33;;;20.20;48.80;;;;;;4410999;32;20131;-70
2021/03/26 10:47:59;;;;;;;75.73;40.70;;;20.70;48.30;;;;;;4411323;32;20154;-71
2021/03/26 10:50:53;;;;;;;78.23;38.30;;;20.90;46.90;;;;;;4409775;32;20423;-71
2021/03/26 10:53:26;;;;;;;71.67;37.93;;;21.10;46.00;;;;;;4411115;32;20529;-71
2021/03/26 10:56:01;;;;;;;70.30;37.37;;;21.10;45.00;;;;;;4411070;32;20257;-71
2021/03/26 10:58:43;;;;;;;74.53;39.93;;;21.40;44.80;;;;;;4410188;32;20138;-71
2021/03/26 11:01:15;;;;;;;70.53;37.77;;;21.60;45.10;;;;;;4409434;32;20179;-71
2021/03/26 11:03:54;;;;;;;71.30;39.57;;;22.00;44.10;;;;;;4409959;32;20227;-71
2021/03/26 11:06:30;;;;;;;68.70;37.43;;;22.20;43.20;;;;;;4409832;32;20148;-72
2021/03/26 11:09:15;;;;;;;66.63;38.10;;;22.30;42.60;;;;;;4409468;32;20135;-70
2021/03/26 11:12:13;;;;;;;70.10;37.40;;;21.90;42.40;;;;;;4409396;32;20159;-71
2021/03/26 11:15:10;;;;;;;68.10;36.23;;;21.60;43.80;;;;;;4396003;32;20201;-72
2021/03/26 11:17:55;;;;;;;61.80;35.10;;;21.50;43.90;;;;;;4410153;32;20174;-70
2021/03/26 11:20:40;;;;;;;69.57;38.00;;;21.50;44.10;;;;;;4408722;32;20169;-72
2021/03/26 11:23:27;;;;;;;59.53;33.53;;;20.90;44.40;;;;;;4410971;32;20143;-71
2021/03/26 11:26:25;;;;;;;62.83;33.53;;;20.20;44.10;;;;;;4409153;32;20154;-72
2021/03/26 11:28:54;;;;;;;62.20;33.07;;;20.20;44.50;;;;;;4410467;32;20128;-73
2021/03/26 11:31:54;;;;;;;63.13;35.17;;;20.40;44.60;;;;;;4408883;32;20139;-73
2021/03/26 11:34:55;;;;;;;67.67;35.80;;;20.20;45.60;;;;;;4409056;32;20245;-74
2021/03/26 11:37:28;;;;;;;63.40;34.33;;;20.40;46.70;;;;;;4408735;32;20166;-72
2021/03/26 11:39:59;;;;;;;67.30;35.37;;;20.10;46.50;;;;;;4410642;32;20171;-72
2021/03/26 11:42:32;;;;;;;61.73;34.23;;;19.60;45.20;;;;;;4408032;32;20210;-72
2021/03/26 11:45:05;;;;;;;62.87;34.80;;;19.60;45.80;;;;;;4410606;32;20211;-71
2021/03/26 11:47:36;;;;;;;64.13;35.33;;;20.00;45.80;;;;;;4410515;32;20143;-71
2021/03/26 11:50:35;;;;;;;69.63;36.57;;;20.40;45.80;;;;;;4410352;32;20210;-71
2021/03/26 11:53:05;;;;;;;64.43;35.30;;;21.20;44.20;;;;;;4408656;32;20201;-70
2021/03/26 11:55:36;;;;;;;66.13;36.00;;;21.20;44.50;;;;;;4408905;32;20131;-71
2021/03/26 11:58:27;;;;;;;60.67;32.83;;;20.70;45.40;;;;;;4410416;32;20182;-70
2021/03/26 12:01:02;;;;;;;53.57;30.80;;;20.20;44.70;;;;;;4409998;32;20135;-70
2021/03/26 12:03:36;;;;;;;55.63;30.50;;;19.30;44.60;;;;;;4416046;32;20492;-70
2021/03/26 12:07:02;;;;;;;56.43;30.10;;;18.90;46.60;;;;;;4424805;32;20190;-72
2021/03/26 12:09:56;;;;;;;55.03;30.07;;;18.70;47.30;;;;;;4350351;33;20219;-72
2021/03/26 12:12:38;;;;;;;58.03;30.27;;;18.30;47.10;;;;;;4349567;33;20156;-71
2021/03/26 12:15:14;;;;;;;52.80;28.80;;;18.00;47.40;;;;;;4352140;33;20507;-72
2021/03/26 12:18:23;;;;;;;55.47;28.57;;;17.90;48.50;;;;;;4349364;33;20187;-72
2021/03/26 12:21:13;;;;;;;52.03;27.10;;;17.60;47.10;;;;;;4293926;33;20192;-70
2021/03/26 12:23:47;;;;;;;49.07;26.67;;;17.00;47.60;;;;;;4352204;33;20176;-71
2021/03/26 12:26:24;;;;;;;52.00;27.43;;;16.80;47.80;;;;;;4347427;33;20247;-72
2021/03/26 12:28:54;;;;;;;55.63;28.93;;;16.50;49.20;;;;;;4346313;33;20243;-71
2021/03/26 12:31:29;;;;;;;58.93;29.00;;;16.40;50.20;;;;;;4346131;33;20471;-70
2021/03/26 12:34:02;;;;;;;56.80;28.83;;;16.20;50.30;;;;;;4359334;33;20183;-72
2021/03/26 12:36:42;;;;;;;50.33;26.70;;;16.00;50.80;;;;;;4347503;33;20193;-71
2021/03/26 12:39:11;;;;;;;53.60;26.93;;;15.60;51.00;;;;;;4360813;32;20166;-70
2021/03/26 12:41:43;;;;;;;54.37;27.60;;;15.20;51.40;;;;;;4409948;32;20182;-70
2021/03/26 12:44:11;;;;;;;51.50;25.70;;;15.10;52.70;;;;;;4421888;32;20181;-71
2021/03/26 12:46:56;;;;;;;54.63;26.53;;;14.90;52.40;;;;;;4425371;32;20181;-70
2021/03/26 12:49:52;;;;;;;54.00;26.23;;;15.00;52.50;;;;;;4427442;32;20151;-70
2021/03/26 12:52:28;;;;;;;49.00;25.53;;;14.80;52.90;;;;;;4418350;32;20611;-70
2021/03/26 12:55:13;;;;;;;51.97;25.20;;;15.00;52.00;;;;;;4428415;32;20201;-71
2021/03/26 12:57:47;;;;;;;63.53;28.63;;;15.00;53.30;;;;;;4415526;32;20170;-71
2021/03/26 13:00:38;;;;;;;52.40;27.77;;;15.00;53.00;;;;;;4413214;32;20477;-71
2021/03/26 13:03:24;;;;;;;53.87;26.80;;;14.70;53.80;;;;;;4411480;32;20198;-69
2021/03/26 13:06:35;;;;;;;48.80;26.00;;;14.50;54.80;;;;;;4416868;32;20197;-71
2021/03/26 13:09:26;;;;;;;56.40;27.43;;;14.70;54.00;;;;;;4419638;32;20167;-71
2021/03/26 13:12:36;;;;;;;47.23;25.43;;;14.90;53.90;;;;;;4412914;32;20159;-69
2021/03/26 13:15:17;;;;;;;49.97;25.53;;;14.90;54.10;;;;;;4380200;32;20179;-70
2021/03/26 13:17:45;;;;;;;50.27;25.97;;;15.00;54.20;;;;;;4377817;32;20232;-69
2021/03/26 13:20:19;;;;;;;51.87;26.23;;;15.20;54.00;;;;;;4378603;32;20155;-70
2021/03/26 13:22:55;;;;;;;54.23;26.47;;;15.10;52.90;;;;;;4380062;32;20322;-69
2021/03/26 13:25:39;;;;;;;50.33;24.77;;;15.10;53.00;;;;;;4379545;32;20151;-71
2021/03/26 13:28:20;;;;;;;49.73;26.07;;;15.20;53.40;;;;;;4377307;32;20851;-71
2021/03/26 13:30:58;;;;;;;51.17;26.83;;;15.20;53.20;;;;;;4377318;32;20207;-71
2021/03/26 13:33:46;;;;;;;51.23;25.27;;;15.20;52.90;;;;;;4382680;32;20565;-70
2021/03/26 13:36:30;;;;;;;51.23;26.43;;;15.10;53.50;;;;;;4382573;32;20216;-72
2021/03/26 13:39:06;;;;;;;47.07;24.63;;;15.00;53.20;;;;;;4389936;32;20197;-72
2021/03/26 13:41:33;;;;;;;51.27;26.07;;;14.80;54.20;;;;;;4393539;32;20162;-71
2021/03/26 13:44:13;;;;;;;51.63;25.63;;;14.90;53.50;;;;;;4393745;32;20152;-73
2021/03/26 13:46:43;;;;;;;50.53;25.27;;;14.90;53.00;;;;;;4393141;32;20481;-72
2021/03/26 13:49:21;;;;;;;50.97;26.27;;;14.90;53.60;;;;;;4414386;32;20196;-73
2021/03/26 13:51:58;;;;;;;53.00;26.90;;;14.90;53.70;;;;;;4426628;32;20463;-73